Time;durP1;ratioP1;P1;durP2;ratioP2;P2;SDS_P1;SDS_P2;PMS_P1;PMS_P2;Temp;Humidity;BMP_temperature;BMP_pressure;BME280_temperature;BME280_humidity;BME280_pressure;Samples;Min_cycle;Max_cycle;Signal;HPM_P1;HPM_P2
2022/03/05 00:00:14;;;;;;;;;;;;;;;;;;5074895;28;20429;-73
2022/03/05 00:02:40;;;;;;;;;;;;;;;;;;5071489;28;19927;-73
2022/03/05 00:05:07;;;;;;;;;;;;;;;;;;5067768;28;20326;-72
2022/03/05 00:07:33;;;;;;;;;;;;;;;;;;5064395;28;19982;-73
2022/03/05 00:09:59;;;;;;;;;;;;;;;;;;5069521;28;20280;-72
2022/03/05 00:12:25;;;;;;;;;;;;;;;;;;5071247;28;19987;-72
2022/03/05 00:14:51;;;;;;;;;;;;;;;;;;5064998;28;20685;-72
2022/03/05 00:17:17;;;;;;;;;;;;;;;;;;5064966;28;20341;-72
2022/03/05 00:19:44;;;;;;;;;;;;;;;;;;5065079;28;20010;-72
2022/03/05 00:22:10;;;;;;;;;;;;;;;;;;5066730;28;19970;-72
2022/03/05 00:24:36;;;;;;;;;;;;;;;;;;5068668;28;19969;-72
2022/03/05 00:27:04;;;;;;;;;;;;;;;;;;5068468;28;19994;-73
2022/03/05 00:29:30;;;;;;;;;;;;;;;;;;5070007;28;19955;-73
2022/03/05 00:31:56;;;;;;;;;;;;;;;;;;5059724;28;20121;-72
2022/03/05 00:34:22;;;;;;;;;;;;;;;;;;5070244;28;20515;-72
2022/03/05 00:36:49;;;;;;;;;;;;;;;;;;5066811;28;19921;-72
2022/03/05 00:39:15;;;;;;;;;;;;;;;;;;5073923;28;19948;-72
2022/03/05 00:41:41;;;;;;;;;;;;;;;;;;5066737;28;20009;-72
2022/03/05 00:44:07;;;;;;;;;;;;;;;;;;5062088;28;19970;-73
2022/03/05 00:46:33;;;;;;;;;;;;;;;;;;5068023;28;19963;-72
2022/03/05 00:49:00;;;;;;;;;;;;;;;;;;5065711;28;19967;-73
2022/03/05 00:51:26;;;;;;;;;;;;;;;;;;5071062;27;19948;-72
2022/03/05 00:53:52;;;;;;;;;;;;;;;;;;5067579;28;19935;-72
2022/03/05 00:56:18;;;;;;;;;;;;;;;;;;5067584;28;21085;-72
2022/03/05 00:58:44;;;;;;;;;;;;;;;;;;5068378;28;19963;-73
2022/03/05 01:01:11;;;;;;;;;;;;;;;;;;5066060;28;20422;-73
2022/03/05 01:03:37;;;;;;;;;;;;;;;;;;5067507;28;20050;-72
2022/03/05 01:06:03;;;;;;;;;;;;;;;;;;5073242;28;19971;-72
2022/03/05 01:08:29;;;;;;;;;;;;;;;;;;5065251;28;19959;-73
2022/03/05 01:10:55;;;;;;;;;;;;;;;;;;5064805;28;19963;-72
2022/03/05 01:13:21;;;;;;;;;;;;;;;;;;5065727;28;19982;-73
2022/03/05 01:15:48;;;;;;;;;;;;;;;;;;5066084;28;19967;-72
2022/03/05 01:18:14;;;;;;;;;;;;;;;;;;5055410;28;19966;-72
2022/03/05 01:20:40;;;;;;;;;;;;;;;;;;5064787;28;19992;-72
2022/03/05 01:23:06;;;;;;;;;;;;;;;;;;5066220;28;19981;-72
2022/03/05 01:25:32;;;;;;;;;;;;;;;;;;5068897;28;20337;-72
2022/03/05 01:27:59;;;;;;;;;;;;;;;;;;5067577;28;19969;-72
2022/03/05 01:30:25;;;;;;;;;;;;;;;;;;5068782;28;19963;-71
2022/03/05 01:32:51;;;;;;;;;;;;;;;;;;5066621;28;19924;-73
2022/03/05 01:35:18;;;;;;;;;;;;;;;;;;5067818;28;21787;-72
2022/03/05 01:37:44;;;;;;;;;;;;;;;;;;5068831;28;19974;-73
2022/03/05 01:40:10;;;;;;;;;;;;;;;;;;5064702;28;19959;-73
2022/03/05 01:42:36;;;;;;;;;;;;;;;;;;5061642;28;19952;-74
2022/03/05 01:45:03;;;;;;;;;;;;;;;;;;5064365;28;19971;-73
2022/03/05 01:47:29;;;;;;;;;;;;;;;;;;5065658;28;19952;-73
2022/03/05 01:49:55;;;;;;;;;;;;;;;;;;5066029;28;19956;-73
2022/03/05 01:52:21;;;;;;;;;;;;;;;;;;5068549;28;19982;-73
2022/03/05 01:54:48;;;;;;;;;;;;;;;;;;5066351;28;20401;-73
2022/03/05 01:57:14;;;;;;;;;;;;;;;;;;5067678;28;19956;-73
2022/03/05 01:59:40;;;;;;;;;;;;;;;;;;5067150;28;19948;-73
2022/03/05 02:02:06;;;;;;;;;;;;;;;;;;5066574;28;19954;-73
2022/03/05 02:04:33;;;;;;;;;;;;;;;;;;5067139;28;20379;-73
2022/03/05 02:06:59;;;;;;;;;;;;;;;;;;5067717;28;19956;-72
2022/03/05 02:09:25;;;;;;;;;;;;;;;;;;5070644;28;19970;-73
2022/03/05 02:11:51;;;;;;;;;;;;;;;;;;5066304;28;19967;-72
2022/03/05 02:14:17;;;;;;;;;;;;;;;;;;5059873;28;19958;-72
2022/03/05 02:16:44;;;;;;;;;;;;;;;;;;5071640;28;19924;-72
2022/03/05 02:19:10;;;;;;;;;;;;;;;;;;5066161;28;20377;-72
2022/03/05 02:21:36;;;;;;;;;;;;;;;;;;5065075;28;19948;-72
2022/03/05 02:24:02;;;;;;;;;;;;;;;;;;5065303;28;19968;-72
2022/03/05 02:26:28;;;;;;;;;;;;;;;;;;5062544;28;19963;-73
2022/03/05 02:28:55;;;;;;;;;;;;;;;;;;5067383;28;19947;-73
2022/03/05 02:31:21;;;;;;;;;;;;;;;;;;5066006;28;20441;-73
2022/03/05 02:33:47;;;;;;;;;;;;;;;;;;5061746;28;19971;-73
2022/03/05 02:36:13;;;;;;;;;;;;;;;;;;5074180;28;20619;-73
2022/03/05 02:38:40;;;;;;;;;;;;;;;;;;5065816;28;19947;-73
2022/03/05 02:41:06;;;;;;;;;;;;;;;;;;5063851;28;19944;-73
2022/03/05 02:43:32;;;;;;;;;;;;;;;;;;5065816;28;20024;-73
2022/03/05 02:45:58;;;;;;;;;;;;;;;;;;5061579;28;20007;-72
2022/03/05 02:48:25;;;;;;;;;;;;;;;;;;5067686;28;19952;-73
2022/03/05 02:50:51;;;;;;;;;;;;;;;;;;5064772;28;19974;-71
2022/03/05 02:53:17;;;;;;;;;;;;;;;;;;5064566;28;19967;-72
2022/03/05 02:55:44;;;;;;;;;;;;;;;;;;5065614;28;19924;-72
2022/03/05 02:58:10;;;;;;;;;;;;;;;;;;5061360;28;19951;-72
2022/03/05 03:00:36;;;;;;;;;;;;;;;;;;5068416;28;19964;-72
2022/03/05 03:03:02;;;;;;;;;;;;;;;;;;5061762;28;20434;-72
2022/03/05 03:05:28;;;;;;;;;;;;;;;;;;5063492;28;19959;-72
2022/03/05 03:07:55;;;;;;;;;;;;;;;;;;5066601;28;19951;-73
2022/03/05 03:10:21;;;;;;;;;;;;;;;;;;5065440;28;19963;-73
2022/03/05 03:12:47;;;;;;;;;;;;;;;;;;5066764;28;19955;-73
2022/03/05 03:15:13;;;;;;;;;;;;;;;;;;5064962;28;19964;-73
2022/03/05 03:17:40;;;;;;;;;;;;;;;;;;5066466;28;20019;-73
2022/03/05 03:20:06;;;;;;;;;;;;;;;;;;5065474;28;20391;-72
2022/03/05 03:22:32;;;;;;;;;;;;;;;;;;5065983;28;19943;-73
2022/03/05 03:24:58;;;;;;;;;;;;;;;;;;5062333;28;20329;-71
2022/03/05 03:27:24;;;;;;;;;;;;;;;;;;5066623;28;19924;-71
2022/03/05 03:29:51;;;;;;;;;;;;;;;;;;5067677;28;19959;-72
2022/03/05 03:32:17;;;;;;;;;;;;;;;;;;5067578;28;19968;-72
2022/03/05 03:34:43;;;;;;;;;;;;;;;;;;5064194;28;19963;-72
2022/03/05 03:37:09;;;;;;;;;;;;;;;;;;5068069;28;19951;-72
2022/03/05 03:39:35;;;;;;;;;;;;;;;;;;5055645;28;19964;-72
2022/03/05 03:42:02;;;;;;;;;;;;;;;;;;5066815;28;19959;-72
2022/03/05 03:44:28;;;;;;;;;;;;;;;;;;5064269;28;19940;-72
2022/03/05 03:46:56;;;;;;;;;;;;;;;;;;5065872;28;19920;-73
2022/03/05 03:49:22;;;;;;;;;;;;;;;;;;5058188;28;19921;-73
2022/03/05 03:51:49;;;;;;;;;;;;;;;;;;5062462;28;22506;-73
2022/03/05 03:54:15;;;;;;;;;;;;;;;;;;5060309;28;19974;-73
2022/03/05 03:56:41;;;;;;;;;;;;;;;;;;5065006;28;19978;-72
2022/03/05 03:59:07;;;;;;;;;;;;;;;;;;5064577;28;19964;-71
2022/03/05 04:01:33;;;;;;;;;;;;;;;;;;5061845;28;19967;-71
2022/03/05 04:04:00;;;;;;;;;;;;;;;;;;5065015;28;20277;-72
2022/03/05 04:08:41;;;;;;;;;;;;;;;;;;5066875;28;19960;-71
2022/03/05 04:09:12;;;;;;;;;;;;;;;;;;5060486;28;19968;-71
2022/03/05 04:11:38;;;;;;;;;;;;;;;;;;5065704;28;19916;-72
2022/03/05 04:14:04;;;;;;;;;;;;;;;;;;5064876;28;19967;-72
2022/03/05 04:16:31;;;;;;;;;;;;;;;;;;5060957;28;19981;-73
2022/03/05 04:18:57;;;;;;;;;;;;;;;;;;5062093;28;19947;-73
2022/03/05 04:21:23;;;;;;;;;;;;;;;;;;5065004;28;20434;-73
2022/03/05 04:23:49;;;;;;;;;;;;;;;;;;5059801;28;19975;-72
2022/03/05 04:26:15;;;;;;;;;;;;;;;;;;5063506;28;19952;-72
2022/03/05 04:28:41;;;;;;;;;;;;;;;;;;5066937;28;19960;-72
2022/03/05 04:31:08;;;;;;;;;;;;;;;;;;5065491;28;19959;-72
2022/03/05 04:33:34;;;;;;;;;;;;;;;;;;5068178;28;19968;-72
2022/03/05 04:36:00;;;;;;;;;;;;;;;;;;5060467;28;19960;-72
2022/03/05 04:38:26;;;;;;;;;;;;;;;;;;5069664;28;19947;-72
2022/03/05 04:40:52;;;;;;;;;;;;;;;;;;5071096;28;19951;-73
2022/03/05 04:43:19;;;;;;;;;;;;;;;;;;5065230;28;20360;-73
2022/03/05 04:45:45;;;;;;;;;;;;;;;;;;5066099;28;20009;-73
2022/03/05 04:48:11;;;;;;;;;;;;;;;;;;5062338;28;19959;-73
2022/03/05 04:50:37;;;;;;;;;;;;;;;;;;5062594;28;19978;-73
2022/03/05 04:53:03;;;;;;;;;;;;;;;;;;5066711;28;19960;-73
2022/03/05 04:55:30;;;;;;;;;;;;;;;;;;5065418;28;19988;-73
2022/03/05 04:57:56;;;;;;;;;;;;;;;;;;5066930;28;20058;-72
2022/03/05 05:00:22;;;;;;;;;;;;;;;;;;5060009;28;19975;-72
2022/03/05 05:02:48;;;;;;;;;;;;;;;;;;5068629;28;19956;-72
2022/03/05 05:05:14;;;;;;;;;;;;;;;;;;5059195;28;19958;-71
2022/03/05 05:07:41;;;;;;;;;;;;;;;;;;5058988;28;19944;-71
2022/03/05 05:10:07;;;;;;;;;;;;;;;;;;5067494;28;20012;-71
2022/03/05 05:12:33;;;;;;;;;;;;;;;;;;5064874;28;19982;-72
2022/03/05 05:14:59;;;;;;;;;;;;;;;;;;5066107;28;19964;-72
2022/03/05 05:17:25;;;;;;;;;;;;;;;;;;5066964;28;19952;-72
2022/03/05 05:19:52;;;;;;;;;;;;;;;;;;5067726;28;19948;-72
2022/03/05 05:22:18;;;;;;;;;;;;;;;;;;5068386;28;19956;-73
2022/03/05 05:24:44;;;;;;;;;;;;;;;;;;5068749;28;19998;-71
2022/03/05 05:27:10;;;;;;;;;;;;;;;;;;5065348;28;19944;-71
2022/03/05 05:29:38;;;;;;;;;;;;;;;;;;5064200;28;20294;-71
2022/03/05 05:32:05;;;;;;;;;;;;;;;;;;5066753;28;19947;-71
2022/03/05 05:34:31;;;;;;;;;;;;;;;;;;5070697;28;20491;-71
2022/03/05 05:36:57;;;;;;;;;;;;;;;;;;5061432;28;19963;-71
2022/03/05 05:39:23;;;;;;;;;;;;;;;;;;5050880;28;20016;-72
2022/03/05 05:41:49;;;;;;;;;;;;;;;;;;5068434;28;20381;-72
2022/03/05 05:44:16;;;;;;;;;;;;;;;;;;5066943;28;19948;-71
2022/03/05 05:46:42;;;;;;;;;;;;;;;;;;5065914;28;20409;-71
2022/03/05 05:49:08;;;;;;;;;;;;;;;;;;5066498;28;19963;-71
2022/03/05 05:51:35;;;;;;;;;;;;;;;;;;5072067;28;19952;-71
2022/03/05 05:54:01;;;;;;;;;;;;;;;;;;5062295;28;19946;-72
2022/03/05 05:56:27;;;;;;;;;;;;;;;;;;5069020;28;19960;-72
2022/03/05 05:58:53;;;;;;;;;;;;;;;;;;5080153;28;19956;-72
2022/03/05 06:01:19;;;;;;;;;;;;;;;;;;5066538;28;19952;-72
2022/03/05 06:03:46;;;;;;;;;;;;;;;;;;5067808;28;19944;-72
2022/03/05 06:06:12;;;;;;;;;;;;;;;;;;5049538;28;19952;-72
2022/03/05 06:08:38;;;;;;;;;;;;;;;;;;5069261;28;20388;-72
2022/03/05 06:11:05;;;;;;;;;;;;;;;;;;5067424;28;20345;-72
2022/03/05 06:13:31;;;;;;;;;;;;;;;;;;5071033;28;19960;-72
2022/03/05 06:15:57;;;;;;;;;;;;;;;;;;5066755;28;20465;-72
2022/03/05 06:18:23;;;;;;;;;;;;;;;;;;5064878;28;20028;-72
2022/03/05 06:20:50;;;;;;;;;;;;;;;;;;5068581;28;19960;-71
2022/03/05 06:23:18;;;;;;;;;;;;;;;;;;5062593;28;19960;-71
2022/03/05 06:25:44;;;;;;;;;;;;;;;;;;5060785;28;19959;-71
2022/03/05 06:28:10;;;;;;;;;;;;;;;;;;5061253;28;19944;-72
2022/03/05 06:30:36;;;;;;;;;;;;;;;;;;5068488;28;19948;-72
2022/03/05 06:33:03;;;;;;;;;;;;;;;;;;5065454;28;19956;-71
2022/03/05 06:35:29;;;;;;;;;;;;;;;;;;5062056;28;20313;-72
2022/03/05 06:37:55;;;;;;;;;;;;;;;;;;5065351;28;19959;-72
2022/03/05 06:40:21;;;;;;;;;;;;;;;;;;5063460;28;20398;-72
2022/03/05 06:42:48;;;;;;;;;;;;;;;;;;5068210;28;20410;-72
2022/03/05 06:45:14;;;;;;;;;;;;;;;;;;5065905;28;19964;-71
2022/03/05 06:47:40;;;;;;;;;;;;;;;;;;5066387;28;20349;-71
2022/03/05 06:50:06;;;;;;;;;;;;;;;;;;5067308;28;19962;-71
2022/03/05 06:52:32;;;;;;;;;;;;;;;;;;5066026;28;19952;-72
2022/03/05 06:54:59;;;;;;;;;;;;;;;;;;5073680;28;19963;-72
2022/03/05 06:57:25;;;;;;;;;;;;;;;;;;5067126;28;19958;-71
2022/03/05 06:59:51;;;;;;;;;;;;;;;;;;5064237;28;19962;-71
2022/03/05 07:02:17;;;;;;;;;;;;;;;;;;5063461;28;19952;-72
2022/03/05 07:04:43;;;;;;;;;;;;;;;;;;5063448;28;19952;-72
2022/03/05 07:07:10;;;;;;;;;;;;;;;;;;5062114;28;19917;-72
2022/03/05 07:09:36;;;;;;;;;;;;;;;;;;5061476;28;20530;-72
2022/03/05 07:12:02;;;;;;;;;;;;;;;;;;5067577;28;19980;-72
2022/03/05 07:14:28;;;;;;;;;;;;;;;;;;5069021;28;19989;-74
2022/03/05 07:16:55;;;;;;;;;;;;;;;;;;5068679;28;19920;-73
2022/03/05 07:19:21;;;;;;;;;;;;;;;;;;5059905;28;20024;-73
2022/03/05 07:21:47;;;;;;;;;;;;;;;;;;5065750;28;19986;-73
2022/03/05 07:24:13;;;;;;;;;;;;;;;;;;5059027;28;19968;-72
2022/03/05 07:26:40;;;;;;;;;;;;;;;;;;5063013;28;19993;-72
2022/03/05 07:29:06;;;;;;;;;;;;;;;;;;5062480;28;20380;-73
2022/03/05 07:31:32;;;;;;;;;;;;;;;;;;5059453;28;19960;-72
2022/03/05 07:33:58;;;;;;;;;;;;;;;;;;5061430;28;19978;-72
2022/03/05 07:36:24;;;;;;;;;;;;;;;;;;5057344;28;20540;-71
2022/03/05 07:38:51;;;;;;;;;;;;;;;;;;5060435;28;19963;-72
2022/03/05 07:41:17;;;;;;;;;;;;;;;;;;5066211;28;19974;-72
2022/03/05 07:43:44;;;;;;;;;;;;;;;;;;5066833;28;19924;-72
2022/03/05 07:46:12;;;;;;;;;;;;;;;;;;5048197;28;20311;-70
2022/03/05 07:48:47;;;;;;;;;;;;;;;;;;5065278;28;19921;-69
2022/03/05 07:51:32;;;;;;;;;;;;;;;;;;5067187;28;20368;-69
2022/03/05 07:54:11;;;;;;;;;;;;;;;;;;5067171;28;20011;-70
2022/03/05 07:56:48;;;;;;;;;;;;;;;;;;5067029;28;20355;-70
2022/03/05 07:59:29;;;;;;;;;;;;;;;;;;5064731;28;20001;-70
2022/03/05 08:02:15;;;;;;;;;;;;;;;;;;5061808;28;19924;-70
2022/03/05 08:04:57;;;;;;;;;;;;;;;;;;5045226;28;19928;-70
2022/03/05 08:07:43;;;;;;;;;;;;;;;;;;5064613;28;19923;-70
2022/03/05 08:10:29;;;;;;;;;;;;;;;;;;5064063;28;19916;-70
2022/03/05 08:13:15;;;;;;;;;;;;;;;;;;5065720;28;19951;-70
2022/03/05 08:15:53;;;;;;;;;;;;;;;;;;5064799;28;20423;-70
2022/03/05 08:18:29;;;;;;;;;;;;;;;;;;5065347;28;19924;-70
2022/03/05 08:21:15;;;;;;;;;;;;;;;;;;5065434;28;19915;-70
2022/03/05 08:23:58;;;;;;;;;;;;;;;;;;5043150;28;20645;-70
2022/03/05 08:26:37;;;;;;;;;;;;;;;;;;5060724;28;20383;-70
2022/03/05 08:29:23;;;;;;;;;;;;;;;;;;5068221;28;19920;-70
2022/03/05 08:31:58;;;;;;;;;;;;;;;;;;5027155;28;19920;-70
2022/03/05 08:34:38;;;;;;;;;;;;;;;;;;5067891;28;19927;-70
2022/03/05 08:37:25;;;;;;;;;;;;;;;;;;5066070;28;19961;-70
2022/03/05 08:40:10;;;;;;;;;;;;;;;;;;5049616;28;19924;-69
2022/03/05 08:42:56;;;;;;;;;;;;;;;;;;5075233;28;19920;-70
2022/03/05 08:45:37;;;;;;;;;;;;;;;;;;5049176;28;19913;-70
2022/03/05 08:48:23;;;;;;;;;;;;;;;;;;5024953;28;19912;-69
2022/03/05 08:50:59;;;;;;;;;;;;;;;;;;5032496;28;19958;-69
2022/03/05 08:53:43;;;;;;;;;;;;;;;;;;5029434;28;19924;-69
2022/03/05 08:56:27;;;;;;;;;;;;;;;;;;5014561;28;19999;-70
2022/03/05 08:59:05;;;;;;;;;;;;;;;;;;5040388;28;19912;-69
2022/03/05 09:01:49;;;;;;;;;;;;;;;;;;5027270;28;19916;-68
2022/03/05 09:04:35;;;;;;;;;;;;;;;;;;5072158;28;20287;-68
2022/03/05 09:07:21;;;;;;;;;;;;;;;;;;5071867;28;20156;-70
2022/03/05 09:10:08;;;;;;;;;;;;;;;;;;5076940;28;19913;-69
2022/03/05 09:12:54;;;;;;;;;;;;;;;;;;5066445;28;19916;-70
2022/03/05 09:15:40;;;;;;;;;;;;;;;;;;5070253;28;19927;-73
2022/03/05 09:18:27;;;;;;;;;;;;;;;;;;5068926;28;19909;-73
2022/03/05 09:21:13;;;;;;;;;;;;;;;;;;5068932;28;19916;-72
2022/03/05 09:24:00;;;;;;;;;;;;;;;;;;5066331;28;19920;-73
2022/03/05 09:26:46;;;;;;;;;;;;;;;;;;5065550;28;19912;-71
2022/03/05 09:29:32;;;;;;;;;;;;;;;;;;5069993;28;20288;-75
2022/03/05 09:32:18;;;;;;;;;;;;;;;;;;5071165;28;19916;-75
2022/03/05 09:35:04;;;;;;;;;;;;;;;;;;5058278;28;19921;-76
2022/03/05 09:37:50;;;;;;;;;;;;;;;;;;5067386;28;20292;-78
2022/03/05 09:40:37;;;;;;;;;;;;;;;;;;5058121;28;20280;-75
2022/03/05 09:43:23;;;;;;;;;;;;;;;;;;5068591;28;20024;-73
2022/03/05 09:46:10;;;;;;;;;;;;;;;;;;5071242;28;19924;-72
2022/03/05 09:48:56;;;;;;;;;;;;;;;;;;5071157;28;19912;-72
2022/03/05 09:51:42;;;;;;;;;;;;;;;;;;5062519;28;20232;-72
2022/03/05 09:54:28;;;;;;;;;;;;;;;;;;5061590;28;19921;-72
2022/03/05 09:57:14;;;;;;;;;;;;;;;;;;5066357;28;20353;-72
2022/03/05 10:00:01;;;;;;;;;;;;;;;;;;5066494;28;20353;-72
2022/03/05 10:02:47;;;;;;;;;;;;;;;;;;5061669;28;19909;-72
2022/03/05 10:05:36;;;;;;;;;;;;;;;;;;5069016;28;19913;-73
2022/03/05 10:08:23;;;;;;;;;;;;;;;;;;5066398;28;19916;-73
2022/03/05 10:11:11;;;;;;;;;;;;;;;;;;5065024;28;19916;-73
2022/03/05 10:13:59;;;;;;;;;;;;;;;;;;5066163;28;19920;-72
2022/03/05 10:16:45;;;;;;;;;;;;;;;;;;5068702;28;19939;-72
2022/03/05 10:19:31;;;;;;;;;;;;;;;;;;5067085;28;19909;-72
2022/03/05 10:22:17;;;;;;;;;;;;;;;;;;5070821;28;19919;-73
2022/03/05 10:25:03;;;;;;;;;;;;;;;;;;5061107;28;20323;-72
2022/03/05 10:27:49;;;;;;;;;;;;;;;;;;5066236;28;19915;-72
2022/03/05 10:30:36;;;;;;;;;;;;;;;;;;5068946;28;20395;-72
2022/03/05 10:33:22;;;;;;;;;;;;;;;;;;5058545;28;19920;-72
2022/03/05 10:36:08;;;;;;;;;;;;;;;;;;5055483;28;19917;-71
2022/03/05 10:38:54;;;;;;;;;;;;;;;;;;5070197;28;20434;-71
2022/03/05 10:41:40;;;;;;;;;;;;;;;;;;5064922;28;19917;-71
2022/03/05 10:44:27;;;;;;;;;;;;;;;;;;5056274;28;20368;-71
2022/03/05 10:47:13;;;;;;;;;;;;;;;;;;5065624;28;19923;-72
2022/03/05 10:49:59;;;;;;;;;;;;;;;;;;5071332;28;19908;-73
2022/03/05 10:52:46;;;;;;;;;;;;;;;;;;5073716;28;20299;-73
2022/03/05 10:55:32;;;;;;;;;;;;;;;;;;5064326;28;19917;-73
2022/03/05 10:58:20;;;;;;;;;;;;;;;;;;5068900;28;19948;-73
2022/03/05 11:01:06;;;;;;;;;;;;;;;;;;5061377;28;19912;-73
2022/03/05 11:03:52;;;;;;;;;;;;;;;;;;5066049;28;19909;-73
2022/03/05 11:06:38;;;;;;;;;;;;;;;;;;5066487;28;19912;-72
2022/03/05 11:09:24;;;;;;;;;;;;;;;;;;5068949;28;19924;-73
2022/03/05 11:12:11;;;;;;;;;;;;;;;;;;5068411;28;19908;-73
2022/03/05 11:14:57;;;;;;;;;;;;;;;;;;5063472;28;19924;-72
2022/03/05 11:17:43;;;;;;;;;;;;;;;;;;5057314;28;19919;-72
2022/03/05 11:20:29;;;;;;;;;;;;;;;;;;5070208;28;19920;-72
2022/03/05 11:23:17;;;;;;;;;;;;;;;;;;5065010;28;20544;-72
2022/03/05 11:26:03;;;;;;;;;;;;;;;;;;5058036;28;19913;-72
2022/03/05 11:28:49;;;;;;;;;;;;;;;;;;5069265;28;19916;-72
2022/03/05 11:31:35;;;;;;;;;;;;;;;;;;5069571;28;19916;-72
2022/03/05 11:34:24;;;;;;;;;;;;;;;;;;5062687;28;19927;-73
2022/03/05 11:37:10;;;;;;;;;;;;;;;;;;5059407;28;20387;-72
2022/03/05 11:39:56;;;;;;;;;;;;;;;;;;5068671;28;19909;-72
2022/03/05 11:42:43;;;;;;;;;;;;;;;;;;5064211;28;19917;-73
2022/03/05 11:45:32;;;;;;;;;;;;;;;;;;5058881;28;20312;-72
2022/03/05 11:48:18;;;;;;;;;;;;;;;;;;5083860;28;19919;-73
2022/03/05 11:51:04;;;;;;;;;;;;;;;;;;5060826;28;20299;-72
2022/03/05 11:53:51;;;;;;;;;;;;;;;;;;5068805;28;19916;-72
2022/03/05 11:56:37;;;;;;;;;;;;;;;;;;5056115;28;19916;-73
2022/03/05 11:59:23;;;;;;;;;;;;;;;;;;5062915;28;19920;-73
2022/03/05 12:02:09;;;;;;;;;;;;;;;;;;5065912;28;19923;-73
2022/03/05 12:04:55;;;;;;;;;;;;;;;;;;5060087;28;20513;-73
2022/03/05 12:07:41;;;;;;;;;;;;;;;;;;5064431;28;19921;-73
2022/03/05 12:10:28;;;;;;;;;;;;;;;;;;5063115;28;19940;-73
2022/03/05 12:13:14;;;;;;;;;;;;;;;;;;5063957;28;19924;-73
2022/03/05 12:16:00;;;;;;;;;;;;;;;;;;5062280;28;19917;-72
2022/03/05 12:18:46;;;;;;;;;;;;;;;;;;5062225;28;19921;-73
2022/03/05 12:21:32;;;;;;;;;;;;;;;;;;5068807;28;20304;-72
2022/03/05 12:24:18;;;;;;;;;;;;;;;;;;5064820;28;19927;-72
2022/03/05 12:27:09;;;;;;;;;;;;;;;;;;5066664;28;20407;-70
2022/03/05 12:29:55;;;;;;;;;;;;;;;;;;5066748;28;19912;-72
2022/03/05 12:32:41;;;;;;;;;;;;;;;;;;5063369;28;19919;-72
2022/03/05 12:35:27;;;;;;;;;;;;;;;;;;5071510;28;19917;-72
2022/03/05 12:38:14;;;;;;;;;;;;;;;;;;5064866;28;19916;-70
2022/03/05 12:41:00;;;;;;;;;;;;;;;;;;5067724;28;19913;-71
2022/03/05 12:43:46;;;;;;;;;;;;;;;;;;5070860;28;19908;-73
2022/03/05 12:46:32;;;;;;;;;;;;;;;;;;5069797;28;20275;-76
2022/03/05 12:49:18;;;;;;;;;;;;;;;;;;5068611;28;19966;-74
2022/03/05 12:52:04;;;;;;;;;;;;;;;;;;5073605;28;19909;-74
2022/03/05 12:54:51;;;;;;;;;;;;;;;;;;5068455;28;19916;-75
2022/03/05 12:57:37;;;;;;;;;;;;;;;;;;5073801;28;19917;-74
2022/03/05 13:00:23;;;;;;;;;;;;;;;;;;5070013;28;20407;-74
2022/03/05 13:03:11;;;;;;;;;;;;;;;;;;5067315;28;19909;-72
2022/03/05 13:05:58;;;;;;;;;;;;;;;;;;5066200;28;19920;-72
2022/03/05 13:08:44;;;;;;;;;;;;;;;;;;5065237;28;19916;-73
2022/03/05 13:11:30;;;;;;;;;;;;;;;;;;5067698;28;19909;-73
2022/03/05 13:14:16;;;;;;;;;;;;;;;;;;5069027;28;19916;-73
2022/03/05 13:17:02;;;;;;;;;;;;;;;;;;5069060;28;20372;-72
2022/03/05 13:19:48;;;;;;;;;;;;;;;;;;5069298;28;19924;-73
2022/03/05 13:22:35;;;;;;;;;;;;;;;;;;5070637;28;19917;-74
2022/03/05 13:25:21;;;;;;;;;;;;;;;;;;5070027;28;19924;-73
2022/03/05 13:28:07;;;;;;;;;;;;;;;;;;5073795;28;19934;-72
2022/03/05 13:30:53;;;;;;;;;;;;;;;;;;5074948;28;19917;-72
2022/03/05 13:33:41;;;;;;;;;;;;;;;;;;5066992;28;19917;-73
2022/03/05 13:36:28;;;;;;;;;;;;;;;;;;5077357;28;20276;-72
2022/03/05 13:39:15;;;;;;;;;;;;;;;;;;5070539;28;19912;-72
2022/03/05 13:42:02;;;;;;;;;;;;;;;;;;5066350;28;19919;-72
2022/03/05 13:44:48;;;;;;;;;;;;;;;;;;5074462;28;19913;-73
2022/03/05 13:47:34;;;;;;;;;;;;;;;;;;5061398;28;19922;-72
2022/03/05 13:50:20;;;;;;;;;;;;;;;;;;5064011;28;20349;-73
2022/03/05 13:53:06;;;;;;;;;;;;;;;;;;5065778;28;19995;-73
2022/03/05 13:55:52;;;;;;;;;;;;;;;;;;5061319;28;19916;-73
2022/03/05 13:58:39;;;;;;;;;;;;;;;;;;5072437;28;20386;-73
2022/03/05 14:01:25;;;;;;;;;;;;;;;;;;5068688;28;19916;-73
2022/03/05 14:04:11;;;;;;;;;;;;;;;;;;5072591;28;19912;-73
2022/03/05 14:06:57;;;;;;;;;;;;;;;;;;5068000;28;19920;-73
2022/03/05 14:09:43;;;;;;;;;;;;;;;;;;5060978;28;19912;-72
2022/03/05 14:12:29;;;;;;;;;;;;;;;;;;5065080;28;19919;-72
2022/03/05 14:15:15;;;;;;;;;;;;;;;;;;5062942;28;19920;-73
2022/03/05 14:18:02;;;;;;;;;;;;;;;;;;5067009;28;20378;-75
2022/03/05 14:20:48;;;;;;;;;;;;;;;;;;5065843;28;19921;-76
2022/03/05 14:23:36;;;;;;;;;;;;;;;;;;5064772;28;19928;-75
2022/03/05 14:26:27;;;;;;;;;;;;;;;;;;5066999;28;19931;-75
2022/03/05 14:29:13;;;;;;;;;;;;;;;;;;5064620;28;19908;-74
2022/03/05 14:31:59;;;;;;;;;;;;;;;;;;5066694;28;20285;-73
2022/03/05 14:34:45;;;;;;;;;;;;;;;;;;5065671;28;20629;-74
2022/03/05 14:37:31;;;;;;;;;;;;;;;;;;5068647;28;19913;-73
2022/03/05 14:40:18;;;;;;;;;;;;;;;;;;5073388;28;20372;-74
2022/03/05 14:43:04;;;;;;;;;;;;;;;;;;5068365;28;19913;-73
2022/03/05 14:45:50;;;;;;;;;;;;;;;;;;5067115;28;19964;-74
2022/03/05 14:48:36;;;;;;;;;;;;;;;;;;5065310;28;20012;-73
2022/03/05 14:51:22;;;;;;;;;;;;;;;;;;5066125;28;19912;-73
2022/03/05 14:54:08;;;;;;;;;;;;;;;;;;5071611;28;20317;-73
2022/03/05 14:56:55;;;;;;;;;;;;;;;;;;5067378;28;20273;-73
2022/03/05 14:59:41;;;;;;;;;;;;;;;;;;5068174;28;19924;-73
2022/03/05 15:02:27;;;;;;;;;;;;;;;;;;5065879;28;20443;-73
2022/03/05 15:05:13;;;;;;;;;;;;;;;;;;5065814;28;19930;-74
2022/03/05 15:07:59;;;;;;;;;;;;;;;;;;5064034;28;20441;-73
2022/03/05 15:10:45;;;;;;;;;;;;;;;;;;5059861;28;19936;-74
2022/03/05 15:13:32;;;;;;;;;;;;;;;;;;5069605;28;19908;-73
2022/03/05 15:16:18;;;;;;;;;;;;;;;;;;5065813;28;19927;-74
2022/03/05 15:19:04;;;;;;;;;;;;;;;;;;5066127;28;20381;-74
2022/03/05 15:21:50;;;;;;;;;;;;;;;;;;5061182;28;19928;-74
2022/03/05 15:24:36;;;;;;;;;;;;;;;;;;5061494;28;19935;-74
2022/03/05 15:27:23;;;;;;;;;;;;;;;;;;5067032;28;20284;-74
2022/03/05 15:30:09;;;;;;;;;;;;;;;;;;5056192;28;19916;-74
2022/03/05 15:32:55;;;;;;;;;;;;;;;;;;5063298;28;19917;-74
2022/03/05 15:35:43;;;;;;;;;;;;;;;;;;5060187;28;19916;-74
2022/03/05 15:38:29;;;;;;;;;;;;;;;;;;5059760;28;19912;-71
2022/03/05 15:41:15;;;;;;;;;;;;;;;;;;5065214;28;19913;-72
2022/03/05 15:44:01;;;;;;;;;;;;;;;;;;5057412;28;19998;-72
2022/03/05 15:46:47;;;;;;;;;;;;;;;;;;5065658;28;19928;-72
2022/03/05 15:49:34;;;;;;;;;;;;;;;;;;5065624;28;19973;-72
2022/03/05 15:52:20;;;;;;;;;;;;;;;;;;5061022;28;19921;-73
2022/03/05 15:55:07;;;;;;;;;;;;;;;;;;5065458;28;19921;-73
2022/03/05 15:57:53;;;;;;;;;;;;;;;;;;5065820;28;19923;-72
2022/03/05 16:00:39;;;;;;;;;;;;;;;;;;5058968;28;20325;-74
2022/03/05 16:03:25;;;;;;;;;;;;;;;;;;5060141;28;19920;-74
2022/03/05 16:06:11;;;;;;;;;;;;;;;;;;5067169;28;19959;-73
2022/03/05 16:08:57;;;;;;;;;;;;;;;;;;5058915;28;19913;-74
2022/03/05 16:11:44;;;;;;;;;;;;;;;;;;5066406;28;20360;-74
2022/03/05 16:14:30;;;;;;;;;;;;;;;;;;5066990;28;19928;-82
2022/03/05 16:17:17;;;;;;;;;;;;;;;;;;5062649;28;19924;-83
2022/03/05 16:20:03;;;;;;;;;;;;;;;;;;5069920;28;20367;-83
2022/03/05 16:22:29;;;;;;;;;;;;;;;;;;5069748;28;19936;-80
2022/03/05 16:24:56;;;;;;;;;;;;;;;;;;5059044;28;19960;-82
2022/03/05 16:27:22;;;;;;;;;;;;;;;;;;5066397;28;19952;-82
2022/03/05 16:29:48;;;;;;;;;;;;;;;;;;5068459;28;19944;-80
2022/03/05 16:32:15;;;;;;;;;;;;;;;;;;5068269;28;20505;-81
2022/03/05 16:34:41;;;;;;;;;;;;;;;;;;5073857;28;19963;-82
2022/03/05 16:37:07;;;;;;;;;;;;;;;;;;5067605;28;20612;-82
2022/03/05 16:39:33;;;;;;;;;;;;;;;;;;5067585;28;19924;-82
2022/03/05 16:41:59;;;;;;;;;;;;;;;;;;5071823;28;19917;-82
2022/03/05 16:44:26;;;;;;;;;;;;;;;;;;5071387;28;19917;-82
2022/03/05 16:46:52;;;;;;;;;;;;;;;;;;5081903;28;19912;-81
2022/03/05 16:49:21;;;;;;;;;;;;;;;;;;5084843;28;19916;-81
2022/03/05 16:51:47;;;;;;;;;;;;;;;;;;5083061;28;19916;-81
2022/03/05 16:54:13;;;;;;;;;;;;;;;;;;5081559;28;20277;-81
2022/03/05 16:56:42;;;;;;;;;;;;;;;;;;5076188;28;19925;-82
2022/03/05 16:59:08;;;;;;;;;;;;;;;;;;5073905;28;19917;-82
2022/03/05 17:01:34;;;;;;;;;;;;;;;;;;5068421;28;20437;-81
2022/03/05 17:04:00;;;;;;;;;;;;;;;;;;5066482;28;19952;-81
2022/03/05 17:06:26;;;;;;;;;;;;;;;;;;5069162;28;20559;-80
2022/03/05 17:08:53;;;;;;;;;;;;;;;;;;5068642;28;20706;-82
2022/03/05 17:11:19;;;;;;;;;;;;;;;;;;5067370;28;20380;-83
2022/03/05 17:13:45;;;;;;;;;;;;;;;;;;5067054;28;19966;-75
2022/03/05 17:16:11;;;;;;;;;;;;;;;;;;5067334;28;19971;-82
2022/03/05 17:18:37;;;;;;;;;;;;;;;;;;5068614;27;19960;-84
2022/03/05 17:21:06;;;;;;;;;;;;;;;;;;5062621;28;20358;-84
2022/03/05 17:23:32;;;;;;;;;;;;;;;;;;5069294;28;19974;-83
2022/03/05 17:25:58;;;;;;;;;;;;;;;;;;5068286;27;19970;-83
2022/03/05 17:28:24;;;;;;;;;;;;;;;;;;5070786;28;19936;-84
2022/03/05 17:30:51;;;;;;;;;;;;;;;;;;5072094;28;19974;-83
2022/03/05 17:33:17;;;;;;;;;;;;;;;;;;5067136;28;19939;-83
2022/03/05 17:35:43;;;;;;;;;;;;;;;;;;5066099;28;19994;-84
2022/03/05 17:38:09;;;;;;;;;;;;;;;;;;5061290;28;19959;-84